Miller Park, Virginia
Current Conditions -  °F | °C
As of 10:54 AM on Thursday 30 Oct 2014 (Local Time) from KLYH Reporting Station
Clear Clear  
Wind Chill: 57°   Ceiling: Unl
Heat Index: 57°   Visibility: 10mi
Dew Point: 36°   Wind: 7mph
Humidity: 45%   Direction: 20°NNE
Pressure: 30.08"   Gusts: NA
Location:  37.3527°N, 79.1576°W
Report Text: KLYH 301454Z 02006KT 10SM CLR 14/02 A3008 RMK AO2 SLP187 T01390022 50006
Loading
Personal Weather Stations






























Interactive Weather Map
Tropical Storm Tracking
New forecast layout! Learn more

10-Day Weather Forecast

Advertisements
Track Severe Weather on mobile